Time;durP1;ratioP1;P1;durP2;ratioP2;P2;SDS_P1;SDS_P2;PMS_P1;PMS_P2;Temp;Humidity;BMP_temperature;BMP_pressure;BME280_temperature;BME280_humidity;BME280_pressure;Samples;Min_cycle;Max_cycle;Signal;HPM_P1;HPM_P2
2023/07/02 00:03:03;;;;;;;0.90;0.50;;;;;;;;;;5238701;23;20477;-73
2023/07/02 00:05:32;;;;;;;1.10;1.00;;;;;;;;;;4981163;28;20296;-73
2023/07/02 00:08:00;;;;;;;0.90;0.63;;;18.30;99.90;;;;;;4976457;28;20450;-73
2023/07/02 00:10:28;;;;;;;1.57;1.37;;;18.20;99.90;;;;;;4980229;28;20479;-73
2023/07/02 00:13:01;;;;;;;2.23;0.60;;;18.20;99.90;;;;;;4995334;28;20478;-74
2023/07/02 00:15:29;;;;;;;0.60;0.20;;;18.20;99.90;;;;;;4987013;28;20521;-73
2023/07/02 00:17:57;;;;;;;0.60;0.10;;;18.20;99.90;;;;;;4993877;28;20451;-74
2023/07/02 00:20:25;;;;;;;0.60;0.13;;;18.20;99.90;;;;;;4985195;28;20460;-73
2023/07/02 00:22:54;;;;;;;0.60;0.10;;;;;;;;;;4978122;28;20472;-73
2023/07/02 00:25:22;;;;;;;1.50;0.60;;;18.20;99.90;;;;;;4981093;28;20816;-73
2023/07/02 00:27:50;;;;;;;0.60;0.30;;;18.10;99.90;;;;;;4978856;28;21009;-72
2023/07/02 00:30:19;;;;;;;0.90;0.20;;;18.20;99.90;;;;;;4983784;28;20464;-72
2023/07/02 00:32:47;;;;;;;0.60;0.20;;;18.20;99.90;;;;;;4991629;28;20823;-74
2023/07/02 00:35:15;;;;;;;0.60;0.20;;;18.10;99.90;;;;;;4995101;28;20456;-72
2023/07/02 00:37:44;;;;;;;1.33;0.73;;;18.10;99.90;;;;;;4991851;28;20626;-72
2023/07/02 00:40:12;;;;;;;0.90;0.40;;;18.20;99.90;;;;;;4979451;28;20440;-72
2023/07/02 00:42:40;;;;;;;0.60;0.20;;;18.20;99.90;;;;;;4995332;28;20540;-73
2023/07/02 00:45:09;;;;;;;0.60;0.20;;;18.20;99.90;;;;;;4995427;28;20453;-72
2023/07/02 00:47:38;;;;;;;0.70;0.50;;;18.20;99.90;;;;;;4995421;28;20451;-73
2023/07/02 00:50:09;;;;;;;2.47;1.47;;;18.20;99.90;;;;;;4990358;28;20464;-73
2023/07/02 00:52:37;;;;;;;2.80;0.50;;;18.10;99.90;;;;;;4990120;28;20455;-72
2023/07/02 00:55:05;;;;;;;0.60;0.10;;;18.00;99.90;;;;;;4993464;28;20871;-73
2023/07/02 00:57:33;;;;;;;1.10;0.73;;;18.00;99.90;;;;;;4980321;28;20485;-72
2023/07/02 01:00:01;;;;;;;0.60;0.20;;;18.00;99.90;;;;;;4975334;28;20539;-72
2023/07/02 01:02:30;;;;;;;2.17;0.30;;;18.10;99.90;;;;;;4982824;28;20477;-73
2023/07/02 01:04:59;;;;;;;2.30;0.87;;;18.00;99.90;;;;;;4980357;28;20803;-73
2023/07/02 01:07:29;;;;;;;0.60;0.20;;;18.00;99.90;;;;;;4957700;28;20519;-74
2023/07/02 01:09:57;;;;;;;0.70;0.20;;;17.90;99.90;;;;;;4955939;29;20458;-73
2023/07/02 01:12:26;;;;;;;0.60;0.30;;;17.80;99.90;;;;;;4955032;28;20875;-72
2023/07/02 01:14:57;;;;;;;0.60;0.10;;;17.80;99.90;;;;;;4983890;28;20828;-72
2023/07/02 01:17:25;;;;;;;0.60;0.10;;;17.80;99.90;;;;;;4979187;28;20859;-72
2023/07/02 01:19:58;;;;;;;1.77;0.47;;;17.80;99.90;;;;;;4975214;28;20459;-73
2023/07/02 01:22:28;;;;;;;0.60;0.20;;;17.80;99.90;;;;;;4974684;28;20555;-73
2023/07/02 01:24:57;;;;;;;0.80;0.63;;;17.70;99.90;;;;;;4974598;28;20491;-73
2023/07/02 01:27:24;;;;;;;1.87;0.93;;;17.70;99.90;;;;;;4960176;28;20447;-73
2023/07/02 01:29:53;;;;;;;0.70;0.30;;;17.70;99.90;;;;;;4956058;29;20449;-73
2023/07/02 01:32:22;;;;;;;0.60;0.10;;;17.70;99.90;;;;;;4955976;28;20465;-73
2023/07/02 01:34:53;;;;;;;0.60;0.20;;;17.70;99.90;;;;;;4960599;28;20449;-72
2023/07/02 01:37:22;;;;;;;0.73;0.40;;;17.60;99.90;;;;;;4986666;28;20523;-73
2023/07/02 01:39:50;;;;;;;2.60;0.40;;;17.60;99.90;;;;;;4956322;29;20938;-73
2023/07/02 01:42:19;;;;;;;0.60;0.20;;;17.50;99.90;;;;;;4961125;29;20470;-73
2023/07/02 01:44:51;;;;;;;0.60;0.10;;;17.50;99.90;;;;;;4961810;29;20455;-72
2023/07/02 01:47:19;;;;;;;0.60;0.17;;;17.50;99.90;;;;;;4960586;29;20443;-73
2023/07/02 01:49:48;;;;;;;0.93;0.40;;;17.50;99.90;;;;;;4958260;28;21021;-72
2023/07/02 01:52:16;;;;;;;0.60;0.20;;;17.60;99.90;;;;;;4974970;28;20473;-73
2023/07/02 01:54:47;;;;;;;0.60;0.20;;;17.50;99.90;;;;;;4974917;28;20548;-74
2023/07/02 01:57:15;;;;;;;4.30;0.70;;;17.60;99.90;;;;;;4974904;28;20530;-72
2023/07/02 01:59:43;;;;;;;0.60;0.30;;;17.50;99.90;;;;;;4974278;28;20594;-73
2023/07/02 02:02:10;;;;;;;0.60;0.10;;;17.50;99.90;;;;;;4973835;28;20544;-73
2023/07/02 02:04:38;;;;;;;0.60;0.10;;;17.50;99.90;;;;;;4974364;28;20445;-72
2023/07/02 02:07:06;;;;;;;0.60;0.10;;;17.40;99.90;;;;;;4974001;28;20441;-72
2023/07/02 02:09:35;;;;;;;0.60;0.10;;;17.40;99.90;;;;;;4969579;28;20485;-73
2023/07/02 02:12:05;;;;;;;0.60;0.20;;;17.40;99.90;;;;;;4984662;28;20492;-72
2023/07/02 02:14:34;;;;;;;0.60;0.10;;;17.40;99.90;;;;;;4993776;28;21131;-73
2023/07/02 02:17:02;;;;;;;0.60;0.10;;;17.40;99.90;;;;;;4993587;28;20907;-72
2023/07/02 02:19:30;;;;;;;0.60;0.30;;;17.30;99.90;;;;;;4994248;28;20483;-72
2023/07/02 02:21:57;;;;;;;1.37;1.03;;;17.40;99.90;;;;;;4973128;28;20566;-73
2023/07/02 02:24:25;;;;;;;0.60;0.10;;;17.30;99.90;;;;;;4963452;28;20536;-73
2023/07/02 02:26:53;;;;;;;1.53;0.40;;;;;;;;;;5010128;23;20492;-71
2023/07/02 02:29:23;;;;;;;0.60;0.13;;;17.10;99.90;;;;;;4965066;28;20440;-71
2023/07/02 02:31:50;;;;;;;0.60;0.10;;;17.20;99.90;;;;;;4972995;28;20440;-71
2023/07/02 02:34:18;;;;;;;0.60;0.10;;;17.20;99.90;;;;;;4972266;28;20822;-71
2023/07/02 02:36:47;;;;;;;0.60;0.20;;;17.00;99.90;;;;;;4972894;28;20532;-71
2023/07/02 02:39:15;;;;;;;0.60;0.10;;;17.10;99.90;;;;;;4973077;28;20441;-72
2023/07/02 02:41:43;;;;;;;0.80;0.47;;;;;;;;;;4980875;28;20499;-72
2023/07/02 02:44:11;;;;;;;0.60;0.10;;;17.00;99.90;;;;;;4958193;28;20532;-72
2023/07/02 02:46:40;;;;;;;0.97;0.60;;;17.00;99.90;;;;;;4973209;28;20468;-72
2023/07/02 02:49:08;;;;;;;2.27;1.30;;;17.10;99.90;;;;;;4972953;28;20461;-72
2023/07/02 02:51:36;;;;;;;0.90;0.53;;;16.90;99.90;;;;;;4973441;28;20481;-71
2023/07/02 02:54:03;;;;;;;0.90;0.30;;;16.80;99.90;;;;;;4972748;28;20444;-71
2023/07/02 02:56:31;;;;;;;0.70;0.40;;;16.80;99.90;;;;;;4972804;28;20560;-72
2023/07/02 02:58:59;;;;;;;4.50;4.20;;;16.70;99.90;;;;;;4972861;28;21013;-72
2023/07/02 03:01:30;;;;;;;0.60;0.30;;;;;;;;;;4972812;28;20534;-73
2023/07/02 03:04:00;;;;;;;0.60;0.10;;;16.70;99.90;;;;;;4972785;28;20464;-71
2023/07/02 03:06:28;;;;;;;1.30;0.60;;;16.80;99.90;;;;;;4972785;28;20470;-72
2023/07/02 03:08:56;;;;;;;0.90;0.43;;;16.80;99.90;;;;;;4972570;28;20872;-72
2023/07/02 03:11:24;;;;;;;0.90;0.73;;;16.80;99.90;;;;;;4979141;28;20445;-72
2023/07/02 03:13:52;;;;;;;0.60;0.20;;;16.80;99.90;;;;;;4975173;28;20444;-72
2023/07/02 03:16:21;;;;;;;5.43;0.80;;;16.70;99.90;;;;;;4972919;28;20510;-71
2023/07/02 03:18:49;;;;;;;1.00;0.40;;;16.60;99.90;;;;;;4972512;28;20485;-71
2023/07/02 03:21:18;;;;;;;2.13;1.03;;;16.60;99.90;;;;;;4972619;28;20969;-71
2023/07/02 03:23:46;;;;;;;1.57;0.67;;;16.60;99.90;;;;;;4972788;28;20477;-72
2023/07/02 03:26:14;;;;;;;0.77;0.60;;;16.60;99.90;;;;;;4972232;28;20463;-72
2023/07/02 03:28:41;;;;;;;0.80;0.47;;;16.60;99.90;;;;;;4972992;28;20821;-72
2023/07/02 03:31:09;;;;;;;1.37;0.57;;;16.50;99.90;;;;;;4972666;28;20449;-73
2023/07/02 03:33:37;;;;;;;0.80;0.80;;;16.50;99.90;;;;;;4972443;28;20452;-70
2023/07/02 03:36:05;;;;;;;1.37;1.13;;;;;;;;;;4975177;28;20462;-71
2023/07/02 03:38:34;;;;;;;0.60;0.20;;;16.70;99.90;;;;;;4975873;28;20920;-71
2023/07/02 03:41:02;;;;;;;0.60;0.20;;;16.60;99.90;;;;;;4975448;28;20534;-72
2023/07/02 03:43:30;;;;;;;0.60;0.20;;;16.60;99.90;;;;;;4976452;28;20444;-71
2023/07/02 03:45:58;;;;;;;0.60;0.40;;;16.50;99.90;;;;;;4976483;28;20447;-71
2023/07/02 03:48:26;;;;;;;1.87;1.20;;;16.50;99.90;;;;;;4976245;28;21018;-71
2023/07/02 03:50:54;;;;;;;3.90;2.23;;;16.50;99.90;;;;;;4976376;28;20477;-71
2023/07/02 03:53:22;;;;;;;0.60;0.20;;;16.50;99.90;;;;;;4976298;28;20532;-72
2023/07/02 03:55:51;;;;;;;0.60;0.10;;;16.50;99.90;;;;;;4976344;28;20460;-72
2023/07/02 03:58:19;;;;;;;1.03;0.90;;;16.50;99.90;;;;;;4976066;28;20584;-72
2023/07/02 04:00:49;;;;;;;2.10;1.50;;;16.50;99.90;;;;;;4975256;28;20533;-72
2023/07/02 04:03:18;;;;;;;0.70;0.40;;;16.40;99.90;;;;;;4975948;28;20550;-73
2023/07/02 04:05:46;;;;;;;3.07;2.30;;;16.40;99.90;;;;;;4976202;28;20437;-71
2023/07/02 04:08:14;;;;;;;1.17;0.73;;;;;;;;;;4976339;28;20464;-71
2023/07/02 04:10:42;;;;;;;1.53;1.13;;;16.30;99.90;;;;;;4983068;28;20808;-72
2023/07/02 04:13:11;;;;;;;0.60;0.10;;;16.40;99.90;;;;;;4997038;28;20463;-73
2023/07/02 04:15:39;;;;;;;0.60;0.10;;;16.40;99.90;;;;;;4986245;28;20837;-72
2023/07/02 04:18:07;;;;;;;1.37;0.30;;;16.50;99.90;;;;;;4976609;28;21047;-72
2023/07/02 04:20:36;;;;;;;1.43;0.77;;;16.50;99.90;;;;;;4976880;28;20675;-72
2023/07/02 04:23:05;;;;;;;0.60;0.30;;;16.50;99.90;;;;;;4975808;28;20448;-72
2023/07/02 04:25:33;;;;;;;0.80;0.50;;;16.50;99.90;;;;;;4976040;28;20796;-72
2023/07/02 04:28:22;;;;;;;0.90;0.40;;;16.60;99.90;;;;;;4976106;28;20503;-72
2023/07/02 04:30:51;;;;;;;0.60;0.10;;;16.60;99.90;;;;;;4975912;28;20479;-72
2023/07/02 04:33:20;;;;;;;1.10;0.60;;;16.70;99.90;;;;;;4975622;28;20464;-72
2023/07/02 04:35:48;;;;;;;1.87;0.60;;;16.60;99.90;;;;;;4975702;28;20469;-72
2023/07/02 04:38:17;;;;;;;0.60;0.10;;;16.60;99.90;;;;;;4977308;28;20541;-72
2023/07/02 04:40:45;;;;;;;0.60;0.20;;;16.60;99.90;;;;;;4977062;28;20451;-72
2023/07/02 04:43:18;;;;;;;0.70;0.40;;;16.50;99.90;;;;;;4977806;28;20459;-71
2023/07/02 04:45:48;;;;;;;0.60;0.20;;;16.60;99.90;;;;;;4977321;28;20541;-72
2023/07/02 04:48:16;;;;;;;1.40;1.30;;;16.50;99.90;;;;;;4977106;28;21051;-72
2023/07/02 04:50:44;;;;;;;1.17;1.07;;;16.50;99.90;;;;;;4976982;28;20450;-72
2023/07/02 04:53:12;;;;;;;4.83;0.80;;;16.50;99.90;;;;;;4977287;28;20458;-72
2023/07/02 04:55:40;;;;;;;1.00;0.57;;;16.50;99.90;;;;;;4976979;28;20554;-71
2023/07/02 04:58:07;;;;;;;8.03;3.60;;;16.40;99.90;;;;;;4976330;28;20945;-71
2023/07/02 05:00:36;;;;;;;1.70;0.70;;;16.20;99.90;;;;;;4976810;28;20451;-71
2023/07/02 05:03:05;;;;;;;4.00;2.33;;;16.20;99.90;;;;;;4976016;28;20553;-71
2023/07/02 05:05:33;;;;;;;0.60;0.20;;;16.20;99.90;;;;;;4976269;28;20444;-71
2023/07/02 05:08:00;;;;;;;0.60;0.10;;;16.30;99.90;;;;;;4976262;28;20519;-72
2023/07/02 05:10:28;;;;;;;2.20;0.80;;;16.40;99.90;;;;;;4979161;28;20456;-72
2023/07/02 05:12:56;;;;;;;1.93;0.83;;;16.40;99.90;;;;;;4994645;28;20541;-72
2023/07/02 05:15:24;;;;;;;2.90;1.00;;;16.40;99.90;;;;;;4976423;28;20455;-72
2023/07/02 05:17:52;;;;;;;2.03;1.30;;;16.40;99.90;;;;;;4974476;28;20474;-73
2023/07/02 05:20:21;;;;;;;0.60;0.10;;;16.30;99.90;;;;;;4974588;28;20524;-73
2023/07/02 05:22:49;;;;;;;2.37;0.87;;;16.40;99.90;;;;;;4974612;28;20855;-72
2023/07/02 05:25:17;;;;;;;0.63;0.27;;;16.50;99.90;;;;;;4974850;28;20498;-73
2023/07/02 05:27:45;;;;;;;1.33;1.03;;;16.30;99.90;;;;;;4974540;28;20482;-72
2023/07/02 05:30:15;;;;;;;1.33;0.80;;;16.40;99.90;;;;;;4974453;28;20537;-73
2023/07/02 05:32:43;;;;;;;0.60;0.10;;;16.40;99.90;;;;;;4974642;28;20456;-72
2023/07/02 05:35:11;;;;;;;3.33;2.50;;;16.40;99.90;;;;;;4980152;28;20506;-72
2023/07/02 05:37:41;;;;;;;1.40;0.67;;;16.40;99.90;;;;;;4987859;28;20475;-73
2023/07/02 05:40:09;;;;;;;1.87;1.67;;;16.40;99.90;;;;;;4982613;28;20577;-73
2023/07/02 05:42:37;;;;;;;2.70;0.83;;;;;;;;;;4973837;28;20445;-72
2023/07/02 05:45:06;;;;;;;0.60;0.20;;;16.40;99.90;;;;;;4973076;28;20450;-72
2023/07/02 05:47:34;;;;;;;2.70;1.50;;;16.40;99.90;;;;;;4974423;28;20459;-72
2023/07/02 05:50:02;;;;;;;0.80;0.43;;;16.50;99.90;;;;;;4974682;28;20442;-72
2023/07/02 05:52:29;;;;;;;1.60;0.57;;;16.40;99.90;;;;;;4973624;28;21014;-72
2023/07/02 05:54:59;;;;;;;0.80;0.30;;;16.40;99.90;;;;;;4974290;28;20456;-72
2023/07/02 05:57:27;;;;;;;1.00;0.40;;;16.50;99.90;;;;;;4974156;28;20469;-72
2023/07/02 05:59:55;;;;;;;1.20;0.90;;;16.50;99.90;;;;;;4974476;28;20489;-72
2023/07/02 06:02:23;;;;;;;0.70;0.37;;;16.60;99.90;;;;;;4972840;28;20459;-72
2023/07/02 06:04:51;;;;;;;5.33;1.03;;;16.70;99.90;;;;;;4979659;28;20480;-72
2023/07/02 06:07:19;;;;;;;2.40;1.70;;;16.80;99.90;;;;;;4986221;28;20492;-72
2023/07/02 06:09:47;;;;;;;2.47;1.47;;;16.80;99.90;;;;;;4993510;28;20531;-72
2023/07/02 06:12:16;;;;;;;4.40;2.33;;;16.80;99.90;;;;;;4974544;28;20517;-73
2023/07/02 06:14:45;;;;;;;1.73;1.63;;;16.70;99.90;;;;;;4973862;28;20450;-72
2023/07/02 06:17:12;;;;;;;5.60;4.07;;;16.70;99.90;;;;;;4972726;28;21017;-73
2023/07/02 06:19:40;;;;;;;4.33;1.60;;;16.60;99.90;;;;;;4973588;28;20479;-72
2023/07/02 06:22:08;;;;;;;1.33;1.07;;;16.60;99.90;;;;;;4973573;28;20449;-73
2023/07/02 06:24:37;;;;;;;0.70;0.40;;;;;;;;;;4973294;28;20444;-72
2023/07/02 06:27:05;;;;;;;2.20;1.80;;;16.90;99.90;;;;;;4972104;28;20475;-73
2023/07/02 06:29:34;;;;;;;0.60;0.10;;;;;;;;;;4972851;28;20549;-72
2023/07/02 06:32:03;;;;;;;1.37;0.87;;;20.30;99.90;;;;;;4972870;28;20920;-72
2023/07/02 06:34:30;;;;;;;2.17;2.00;;;17.30;99.90;;;;;;4972261;28;20901;-72
2023/07/02 06:36:58;;;;;;;0.90;0.63;;;17.40;99.90;;;;;;4980427;28;20843;-71
2023/07/02 06:39:26;;;;;;;1.30;1.13;;;17.50;99.90;;;;;;4987962;28;21014;-71
2023/07/02 06:41:54;;;;;;;0.80;0.60;;;17.60;99.90;;;;;;4993193;28;20475;-72
2023/07/02 06:44:22;;;;;;;5.03;1.80;;;17.80;99.90;;;;;;4992659;28;20448;-72
2023/07/02 06:46:51;;;;;;;1.37;1.27;;;17.70;99.90;;;;;;4992941;28;20817;-71
2023/07/02 06:49:19;;;;;;;0.60;0.10;;;17.80;99.90;;;;;;4976089;28;20484;-71
2023/07/02 06:51:47;;;;;;;3.60;1.13;;;17.80;99.90;;;;;;4973434;28;20598;-72
2023/07/02 06:54:14;;;;;;;2.07;1.40;;;18.00;99.90;;;;;;4972978;28;20543;-72
2023/07/02 06:56:42;;;;;;;2.60;1.47;;;17.90;96.40;;;;;;4974551;28;20469;-73
2023/07/02 06:59:10;;;;;;;2.53;1.50;;;17.80;97.40;;;;;;4976280;28;20536;-73
2023/07/02 07:01:38;;;;;;;0.60;0.10;;;17.80;99.90;;;;;;4976386;28;20472;-72
2023/07/02 07:04:07;;;;;;;2.53;1.17;;;18.00;99.90;;;;;;4976974;28;20449;-73
2023/07/02 07:06:35;;;;;;;0.60;0.20;;;18.00;98.40;;;;;;4976626;28;20844;-72
2023/07/02 07:09:03;;;;;;;0.73;0.63;;;18.10;96.50;;;;;;4974206;28;20484;-73
2023/07/02 07:11:31;;;;;;;0.60;0.20;;;18.10;96.20;;;;;;4986580;28;20802;-72
2023/07/02 07:13:59;;;;;;;1.87;0.93;;;18.20;97.60;;;;;;4977062;28;20571;-73
2023/07/02 07:16:27;;;;;;;4.80;2.00;;;18.20;95.20;;;;;;4974561;28;20518;-74
2023/07/02 07:18:55;;;;;;;0.90;0.63;;;18.30;95.80;;;;;;4977013;28;20565;-73
2023/07/02 07:21:24;;;;;;;0.60;0.10;;;18.40;95.60;;;;;;4970862;28;21024;-74
2023/07/02 07:23:52;;;;;;;0.60;0.10;;;18.60;96.00;;;;;;4964495;28;20446;-73
2023/07/02 07:26:20;;;;;;;2.70;2.00;;;18.70;90.40;;;;;;4972899;28;20504;-70
2023/07/02 07:28:48;;;;;;;1.10;0.90;;;18.60;90.10;;;;;;4977016;28;20461;-69
2023/07/02 07:31:16;;;;;;;3.17;1.40;;;18.60;90.90;;;;;;4976570;28;20448;-70
2023/07/02 07:33:44;;;;;;;5.90;2.87;;;18.50;90.80;;;;;;4976538;28;20537;-71
2023/07/02 07:36:12;;;;;;;3.50;1.70;;;18.40;89.30;;;;;;4976611;28;20540;-70
2023/07/02 07:38:43;;;;;;;2.60;1.27;;;18.30;90.90;;;;;;4976290;28;20460;-71
2023/07/02 07:41:11;;;;;;;4.00;2.00;;;18.30;90.60;;;;;;4976721;28;20512;-70
2023/07/02 07:43:39;;;;;;;0.60;0.20;;;18.30;90.60;;;;;;4976279;28;20450;-70
2023/07/02 07:46:07;;;;;;;3.33;1.87;;;18.40;91.60;;;;;;4976953;28;20876;-69
2023/07/02 07:48:35;;;;;;;5.10;2.83;;;18.30;90.00;;;;;;4970413;28;20913;-70
2023/07/02 07:51:02;;;;;;;0.70;0.63;;;18.30;90.60;;;;;;4976366;28;20452;-71
2023/07/02 07:53:30;;;;;;;2.47;2.27;;;18.30;90.10;;;;;;4976096;28;20488;-71
2023/07/02 07:56:00;;;;;;;4.03;2.53;;;18.50;91.80;;;;;;4976411;28;20452;-71
2023/07/02 07:58:28;;;;;;;10.90;1.17;;;18.60;92.20;;;;;;4976096;28;20452;-70
2023/07/02 08:00:56;;;;;;;2.60;1.63;;;18.60;99.90;;;;;;4975873;28;20563;-71
2023/07/02 08:03:24;;;;;;;4.27;2.40;;;18.60;89.90;;;;;;4976049;28;20457;-70
2023/07/02 08:05:52;;;;;;;2.07;1.80;;;18.50;91.00;;;;;;4976219;28;20453;-70
2023/07/02 08:08:19;;;;;;;1.47;0.37;;;18.60;91.50;;;;;;4976268;28;20508;-71
2023/07/02 08:10:49;;;;;;;0.60;0.20;;;18.80;90.90;;;;;;4982526;28;20964;-71
2023/07/02 08:13:19;;;;;;;1.10;0.83;;;19.00;89.20;;;;;;4985970;28;21014;-71
2023/07/02 08:15:47;;;;;;;0.83;0.67;;;18.90;84.50;;;;;;4976127;28;20448;-70
2023/07/02 08:18:15;;;;;;;1.43;0.87;;;19.00;84.50;;;;;;4976288;28;20518;-70
2023/07/02 08:20:43;;;;;;;0.60;0.10;;;19.10;83.70;;;;;;4975922;28;20488;-71
2023/07/02 08:23:11;;;;;;;0.77;0.73;;;19.20;82.10;;;;;;4975368;28;20450;-70
2023/07/02 08:25:39;;;;;;;0.60;0.20;;;19.20;91.20;;;;;;4975297;28;20458;-71
2023/07/02 08:28:06;;;;;;;1.00;0.83;;;19.20;83.40;;;;;;4975955;28;20480;-71
2023/07/02 08:30:36;;;;;;;0.80;0.73;;;19.40;90.60;;;;;;4976209;28;20450;-70
2023/07/02 08:33:04;;;;;;;1.00;0.30;;;19.60;77.00;;;;;;4975650;28;20445;-70
2023/07/02 08:35:32;;;;;;;0.70;0.43;;;19.80;64.80;;;;;;4975703;28;20450;-71
2023/07/02 08:38:00;;;;;;;1.67;1.57;;;;;;;;;;4974882;28;20857;-71
2023/07/02 08:40:28;;;;;;;0.60;0.20;;;19.90;57.50;;;;;;4974989;28;21016;-71
2023/07/02 08:42:56;;;;;;;0.80;0.50;;;20.00;58.30;;;;;;4975443;28;20541;-72
2023/07/02 08:45:29;;;;;;;2.20;0.20;;;20.10;56.30;;;;;;4975654;28;20449;-71
2023/07/02 08:47:58;;;;;;;1.83;0.87;;;20.10;51.70;;;;;;4975348;28;20561;-71
2023/07/02 08:50:26;;;;;;;1.57;0.87;;;20.20;54.40;;;;;;4974690;28;20456;-71
2023/07/02 08:52:55;;;;;;;0.90;0.57;;;20.20;49.00;;;;;;4982271;28;20485;-71
2023/07/02 08:55:23;;;;;;;1.00;0.63;;;20.40;48.60;;;;;;4994503;28;20963;-71
2023/07/02 08:57:54;;;;;;;0.60;0.20;;;20.40;42.30;;;;;;4994745;28;20535;-70
2023/07/02 09:00:23;;;;;;;1.23;0.87;;;20.50;42.50;;;;;;4994837;28;20976;-69
2023/07/02 09:02:51;;;;;;;1.63;1.53;;;20.40;40.10;;;;;;4981349;28;20513;-69
2023/07/02 09:05:20;;;;;;;3.03;2.80;;;20.40;37.90;;;;;;4975332;28;20509;-69
2023/07/02 09:07:50;;;;;;;0.70;0.20;;;20.40;39.30;;;;;;4975199;28;20521;-71
2023/07/02 09:10:30;;;;;;;1.63;1.23;;;20.50;36.20;;;;;;4978105;28;20445;-70
2023/07/02 09:13:05;;;;;;;0.70;0.33;;;20.50;46.20;;;;;;4994402;28;20528;-70
2023/07/02 09:15:38;;;;;;;1.20;1.00;;;20.60;30.40;;;;;;4979817;28;20504;-71
2023/07/02 09:18:16;;;;;;;3.73;1.80;;;20.50;30.80;;;;;;4975002;28;20480;-70
2023/07/02 09:20:45;;;;;;;1.63;0.60;;;20.60;21.60;;;;;;4975108;28;20564;-71
2023/07/02 09:23:14;;;;;;;1.37;0.73;;;20.50;20.30;;;;;;4974532;28;20484;-70
2023/07/02 09:25:42;;;;;;;2.20;2.10;;;20.70;18.20;;;;;;4974592;28;20483;-71
2023/07/02 09:28:18;;;;;;;0.70;0.50;;;20.70;18.60;;;;;;4974420;28;20893;-71
2023/07/02 09:30:53;;;;;;;1.73;1.13;;;20.70;11.70;;;;;;4974947;28;20438;-71
2023/07/02 09:33:21;;;;;;;0.80;0.50;;;20.60;7.60;;;;;;4973290;28;20944;-71
2023/07/02 09:35:51;;;;;;;0.60;0.20;;;20.60;16.20;;;;;;4974498;28;20481;-71
2023/07/02 09:38:20;;;;;;;0.70;0.40;;;20.80;11.90;;;;;;4974132;28;21045;-71
2023/07/02 09:40:50;;;;;;;1.03;0.93;;;20.70;9.60;;;;;;4975199;28;20566;-71
2023/07/02 09:43:19;;;;;;;0.83;0.50;;;20.70;17.90;;;;;;4975094;28;20610;-71
2023/07/02 09:45:49;;;;;;;34.77;2.63;;;20.70;10.90;;;;;;4974834;28;20867;-70
2023/07/02 09:48:18;;;;;;;0.60;0.20;;;20.70;8.30;;;;;;4975807;28;20529;-69
2023/07/02 09:50:48;;;;;;;0.60;0.20;;;20.80;4.90;;;;;;4975982;28;20457;-70
2023/07/02 09:53:18;;;;;;;0.60;0.20;;;;;;;;;;4975440;28;20451;-70
2023/07/02 09:55:46;;;;;;;0.60;0.20;;;20.80;5.30;;;;;;4975632;28;20508;-70
2023/07/02 09:58:14;;;;;;;1.67;1.27;;;21.00;1.20;;;;;;4974945;28;20496;-71
2023/07/02 10:00:43;;;;;;;0.63;0.20;;;21.10;3.70;;;;;;4975166;28;20478;-71
2023/07/02 10:03:11;;;;;;;0.60;0.20;;;21.20;3.80;;;;;;4974102;28;20826;-72
2023/07/02 10:05:40;;;;;;;1.67;1.57;;;;;;;;;;4974397;28;20788;-71
2023/07/02 10:08:16;;;;;;;0.60;0.13;;;21.30;1.00;;;;;;4974293;28;20503;-71
2023/07/02 10:10:46;;;;;;;1.23;1.03;;;21.30;2.80;;;;;;4974634;28;20561;-70
2023/07/02 10:13:14;;;;;;;7.73;2.77;;;21.10;1.00;;;;;;4972921;28;20465;-71
2023/07/02 10:15:42;;;;;;;0.60;0.20;;;21.10;1.00;;;;;;4973650;28;20535;-71
2023/07/02 10:18:10;;;;;;;0.60;0.20;;;21.10;1.00;;;;;;4974528;28;20485;-70
2023/07/02 10:20:39;;;;;;;0.60;0.20;;;21.20;1.00;;;;;;4974554;28;20455;-70
2023/07/02 10:23:10;;;;;;;1.87;0.80;;;21.20;1.00;;;;;;4973280;28;20483;-71
2023/07/02 10:25:39;;;;;;;0.60;0.10;;;21.30;1.00;;;;;;4973494;28;20514;-70
2023/07/02 10:28:19;;;;;;;7.93;1.53;;;21.30;1.00;;;;;;4973389;28;20470;-71
2023/07/02 10:30:47;;;;;;;3.17;1.90;;;21.30;1.00;;;;;;4973710;28;20453;-71
2023/07/02 10:33:16;;;;;;;0.70;0.30;;;21.30;1.00;;;;;;4973807;28;20442;-70
2023/07/02 10:35:47;;;;;;;0.60;0.10;;;21.50;1.00;;;;;;4973110;28;20473;-66
2023/07/02 10:38:16;;;;;;;0.60;0.10;;;21.70;1.00;;;;;;4973142;28;20466;-68
2023/07/02 10:40:44;;;;;;;2.30;0.67;;;21.70;1.00;;;;;;4973152;28;20849;-68
2023/07/02 10:43:12;;;;;;;0.60;0.20;;;21.90;1.00;;;;;;4973141;28;21071;-68
2023/07/02 10:45:41;;;;;;;0.70;0.37;;;21.90;1.00;;;;;;4973125;28;20457;-67
2023/07/02 10:48:10;;;;;;;3.07;0.63;;;22.00;1.00;;;;;;4972845;28;20943;-68
2023/07/02 10:50:39;;;;;;;0.80;0.30;;;22.10;1.00;;;;;;4972961;28;20455;-68
2023/07/02 10:53:06;;;;;;;12.23;3.70;;;22.10;1.00;;;;;;4978900;28;20521;-67
2023/07/02 10:55:34;;;;;;;0.70;0.40;;;21.90;1.00;;;;;;4987160;28;20496;-67
2023/07/02 10:58:06;;;;;;;2.10;1.40;;;21.90;1.00;;;;;;4988946;28;20570;-68
2023/07/02 11:00:34;;;;;;;11.43;1.80;;;;;;;;;;4959425;28;20944;-67
2023/07/02 11:03:04;;;;;;;6.40;4.37;;;21.50;1.00;;;;;;4954929;28;20474;-67
2023/07/02 11:05:32;;;;;;;1.27;0.93;;;21.50;1.00;;;;;;4963000;28;20447;-67
2023/07/02 11:08:09;;;;;;;1.70;1.60;;;21.50;1.00;;;;;;4972761;28;20463;-68
2023/07/02 11:10:40;;;;;;;1.33;0.80;;;;;;;;;;4978132;28;20490;-68
2023/07/02 11:13:12;;;;;;;0.60;0.20;;;21.90;1.00;;;;;;4991910;28;20437;-67
2023/07/02 11:15:41;;;;;;;4.80;2.30;;;22.00;1.00;;;;;;4992369;28;20447;-67
2023/07/02 11:18:15;;;;;;;0.70;0.50;;;22.20;1.00;;;;;;4989214;28;20476;-67
2023/07/02 11:20:45;;;;;;;5.60;3.27;;;22.20;1.00;;;;;;4968363;28;20457;-67
2023/07/02 11:23:21;;;;;;;0.60;0.10;;;22.00;1.00;;;;;;4953334;28;20484;-67
2023/07/02 11:25:56;;;;;;;0.70;0.30;;;22.30;1.00;;;;;;4953384;28;20463;-66
2023/07/02 11:28:25;;;;;;;0.77;0.40;;;22.40;1.00;;;;;;4971479;28;20458;-68
2023/07/02 11:30:53;;;;;;;1.20;0.30;;;22.40;1.00;;;;;;4972861;28;20526;-67
2023/07/02 11:33:33;;;;;;;1.37;0.67;;;22.60;1.00;;;;;;4972567;28;20439;-67
2023/07/02 11:36:01;;;;;;;3.57;1.73;;;22.70;1.00;;;;;;4972820;28;20882;-67
2023/07/02 11:38:29;;;;;;;6.70;2.10;;;22.70;1.00;;;;;;4972114;28;20590;-67
2023/07/02 11:40:57;;;;;;;1.10;0.60;;;22.50;1.00;;;;;;4972394;28;20509;-67
2023/07/02 11:43:26;;;;;;;2.50;1.23;;;22.40;1.00;;;;;;4972150;28;20487;-68
2023/07/02 11:45:54;;;;;;;1.30;0.73;;;;;;;;;;4972557;28;20478;-69
2023/07/02 11:48:23;;;;;;;6.80;2.33;;;22.20;1.00;;;;;;4973133;28;20546;-72
2023/07/02 11:50:51;;;;;;;12.23;1.97;;;22.10;1.00;;;;;;4973282;28;20482;-72
2023/07/02 11:53:19;;;;;;;7.83;3.50;;;22.10;1.00;;;;;;4972627;28;20451;-72
2023/07/02 11:55:47;;;;;;;1.67;1.20;;;22.10;1.00;;;;;;4973167;28;20460;-71
2023/07/02 11:58:16;;;;;;;4.20;2.83;;;;;;;;;;4976437;28;20478;-71
2023/07/02 12:00:44;;;;;;;1.17;1.07;;;;;;;;;;4975464;28;20883;-73
2023/07/02 12:03:12;;;;;;;4.03;1.70;;;22.40;1.00;;;;;;4975285;28;20498;-72
2023/07/02 12:05:41;;;;;;;10.60;3.00;;;22.50;1.00;;;;;;4976129;28;20938;-72
2023/07/02 12:08:09;;;;;;;2.83;0.73;;;22.50;1.00;;;;;;4975611;28;20472;-72
2023/07/02 12:10:38;;;;;;;4.33;3.27;;;;;;;;;;4970781;28;20455;-71
2023/07/02 12:13:06;;;;;;;6.63;4.77;;;;;;;;;;4962265;28;20533;-72
2023/07/02 12:15:34;;;;;;;7.00;2.63;;;22.40;1.00;;;;;;4959438;28;20535;-71
2023/07/02 12:18:02;;;;;;;0.80;0.60;;;22.30;1.00;;;;;;4957150;29;20468;-73
2023/07/02 12:20:30;;;;;;;7.77;4.50;;;22.40;1.00;;;;;;4956779;29;20451;-72
2023/07/02 12:22:59;;;;;;;3.33;2.10;;;22.30;1.00;;;;;;4962639;28;20516;-72
2023/07/02 12:25:28;;;;;;;2.63;1.73;;;22.50;1.00;;;;;;4976305;28;20536;-73
2023/07/02 12:27:56;;;;;;;1.53;0.93;;;22.60;1.00;;;;;;4975834;28;20483;-72
2023/07/02 12:30:24;;;;;;;1.77;1.37;;;22.70;1.00;;;;;;4975983;28;20493;-72
2023/07/02 12:32:52;;;;;;;2.27;1.90;;;;;;;;;;4975647;28;20946;-72
2023/07/02 12:35:20;;;;;;;9.77;5.80;;;23.00;1.00;;;;;;4975365;28;20458;-71
2023/07/02 12:37:50;;;;;;;5.87;2.70;;;23.10;1.00;;;;;;4975886;28;20505;-71
2023/07/02 12:40:21;;;;;;;1.90;1.80;;;23.20;1.00;;;;;;4975719;28;20536;-71
2023/07/02 12:42:50;;;;;;;3.17;1.30;;;23.10;1.00;;;;;;4975162;28;20480;-71
2023/07/02 12:45:18;;;;;;;1.23;0.77;;;23.00;1.00;;;;;;4975052;28;20507;-71
2023/07/02 12:47:49;;;;;;;2.77;1.77;;;22.80;1.00;;;;;;4975704;28;20498;-71
2023/07/02 12:50:17;;;;;;;5.40;1.53;;;22.80;1.00;;;;;;4975602;28;20478;-72
2023/07/02 12:52:46;;;;;;;1.00;0.63;;;22.80;1.00;;;;;;4975122;28;20505;-73
2023/07/02 12:55:14;;;;;;;1.07;0.77;;;23.00;1.00;;;;;;4975283;28;20491;-73
2023/07/02 12:57:43;;;;;;;3.07;2.10;;;23.20;1.00;;;;;;4975414;28;20468;-73
2023/07/02 13:00:12;;;;;;;0.60;0.20;;;23.20;1.00;;;;;;4975535;28;20461;-73
2023/07/02 13:02:40;;;;;;;3.37;1.90;;;;;;;;;;4975113;28;20515;-72
2023/07/02 13:05:28;;;;;;;3.93;2.37;;;22.80;1.00;;;;;;4972542;28;20443;-72